createdAt,value
2023-03-16T00:01:06.460Z,-3.40
2023-03-16T00:03:36.945Z,-3.40
2023-03-16T00:06:05.485Z,-3.50
2023-03-16T00:08:34.780Z,-3.50
2023-03-16T00:11:03.776Z,-3.50
2023-03-16T00:13:32.675Z,-3.60
2023-03-16T00:16:03.020Z,-3.70
2023-03-16T00:18:38.719Z,-3.70
2023-03-16T00:21:08.535Z,-3.70
2023-03-16T00:23:37.619Z,-3.70
2023-03-16T00:26:08.328Z,-3.70
2023-03-16T00:28:37.141Z,-3.70
2023-03-16T00:31:06.568Z,-3.70
2023-03-16T00:33:35.041Z,-3.70
2023-03-16T00:36:04.329Z,-3.70
2023-03-16T00:38:35.852Z,-3.70
2023-03-16T00:41:04.967Z,-3.80
2023-03-16T00:43:41.082Z,-3.80
2023-03-16T00:46:11.545Z,-3.80
2023-03-16T00:48:42.554Z,-3.80
2023-03-16T00:51:13.832Z,-3.80
2023-03-16T00:53:45.859Z,-3.80
2023-03-16T00:56:14.838Z,-3.80
2023-03-16T00:58:43.885Z,-3.80
2023-03-16T01:01:14.334Z,-3.80
2023-03-16T01:03:42.839Z,-3.80
2023-03-16T01:06:13.355Z,-3.80
2023-03-16T01:08:43.935Z,-3.80
2023-03-16T01:11:14.025Z,-3.80
2023-03-16T01:13:42.288Z,-3.70
2023-03-16T01:16:11.692Z,-3.60
2023-03-16T01:18:40.456Z,-3.50
2023-03-16T01:21:10.305Z,-3.50
2023-03-16T01:23:38.780Z,-3.60
2023-03-16T01:26:08.532Z,-3.60
2023-03-16T01:28:37.429Z,-3.50
2023-03-16T01:31:08.312Z,-3.40
2023-03-16T01:33:37.091Z,-3.30
2023-03-16T01:36:07.968Z,-3.40
2023-03-16T01:38:36.654Z,-3.50
2023-03-16T01:41:05.969Z,-3.60
2023-03-16T01:43:37.616Z,-3.60
2023-03-16T01:46:25.073Z,-3.70
2023-03-16T01:49:05.668Z,-3.80
2023-03-16T01:51:38.990Z,-3.90
2023-03-16T01:54:14.590Z,-3.90
2023-03-16T01:56:47.597Z,-3.90
2023-03-16T01:59:22.382Z,-3.90
2023-03-16T02:01:52.890Z,-3.90
2023-03-16T02:04:33.993Z,-3.90
2023-03-16T02:07:02.479Z,-4.00
2023-03-16T02:09:31.119Z,-4.00
2023-03-16T02:12:00.004Z,-4.00
2023-03-16T02:14:29.835Z,-4.00
2023-03-16T02:16:58.570Z,-4.10
2023-03-16T02:19:37.484Z,-4.10
2023-03-16T02:22:08.593Z,-4.00
2023-03-16T02:24:37.851Z,-4.10
2023-03-16T02:27:09.054Z,-4.10
2023-03-16T02:30:03.034Z,-4.10
2023-03-16T02:32:33.558Z,-4.20
2023-03-16T02:35:03.338Z,-4.30
2023-03-16T02:37:33.860Z,-4.40
2023-03-16T02:40:03.785Z,-4.30
2023-03-16T02:42:32.307Z,-4.30
2023-03-16T02:45:03.278Z,-4.30
2023-03-16T02:47:36.937Z,-4.40
2023-03-16T02:50:06.850Z,-4.40
2023-03-16T02:52:35.664Z,-4.40
2023-03-16T02:55:04.384Z,-4.40
2023-03-16T02:57:32.872Z,-4.40
2023-03-16T03:00:01.276Z,-4.50
2023-03-16T03:02:32.064Z,-4.50
2023-03-16T03:05:00.695Z,-4.50
2023-03-16T03:07:31.914Z,-4.50
2023-03-16T03:10:02.998Z,-4.50
2023-03-16T03:12:31.220Z,-4.50
2023-03-16T03:14:59.460Z,-4.40
2023-03-16T03:17:30.238Z,-4.40
2023-03-16T03:20:02.324Z,-4.50
2023-03-16T03:22:30.646Z,-4.50
2023-03-16T03:24:58.921Z,-4.50
2023-03-16T03:27:27.255Z,-4.50
2023-03-16T03:29:55.562Z,-4.60
2023-03-16T03:32:23.877Z,-4.60
2023-03-16T03:34:53.025Z,-4.60
2023-03-16T03:37:22.658Z,-4.60
2023-03-16T03:39:51.169Z,-4.60
2023-03-16T03:42:19.433Z,-4.50
2023-03-16T03:44:47.686Z,-4.50
2023-03-16T03:47:15.891Z,-4.40
2023-03-16T03:49:44.359Z,-4.40
2023-03-16T03:52:12.882Z,-4.30
2023-03-16T03:54:42.504Z,-4.30
2023-03-16T03:57:11.013Z,-4.20
2023-03-16T03:59:43.697Z,-4.10
2023-03-16T04:02:12.621Z,-4.10
2023-03-16T04:04:44.293Z,-4.10
2023-03-16T04:07:13.070Z,-4.10
2023-03-16T04:09:42.853Z,-4.00
2023-03-16T04:12:12.684Z,-4.00
2023-03-16T04:14:40.922Z,-3.90
2023-03-16T04:17:09.312Z,-3.80
2023-03-16T04:19:37.689Z,-3.90
2023-03-16T04:22:07.206Z,-3.90
2023-03-16T04:24:38.754Z,-3.90
2023-03-16T04:27:08.433Z,-3.80
2023-03-16T04:29:36.810Z,-3.90
2023-03-16T04:32:05.820Z,-3.90
2023-03-16T04:34:34.502Z,-3.90
2023-03-16T04:37:03.421Z,-3.90
2023-03-16T04:39:31.613Z,-4.00
2023-03-16T04:41:59.860Z,-4.20
2023-03-16T04:44:29.566Z,-4.30
2023-03-16T04:46:59.200Z,-4.40
2023-03-16T04:49:27.481Z,-4.40
2023-03-16T04:51:55.711Z,-4.30
2023-03-16T04:54:23.978Z,-4.30
2023-03-16T04:56:52.500Z,-4.30
2023-03-16T04:59:21.080Z,-4.40
2023-03-16T05:01:50.853Z,-4.40
2023-03-16T05:04:19.921Z,-4.50
2023-03-16T05:06:48.241Z,-4.40
2023-03-16T05:09:16.502Z,-4.40
2023-03-16T05:11:44.854Z,-4.50
2023-03-16T05:14:13.140Z,-4.60
2023-03-16T05:16:41.977Z,-4.60
2023-03-16T05:19:12.525Z,-4.60
2023-03-16T05:21:40.741Z,-4.70
2023-03-16T05:24:09.626Z,-4.70
2023-03-16T05:26:37.840Z,-4.70
2023-03-16T05:29:06.692Z,-4.70
2023-03-16T05:31:36.280Z,-4.70
2023-03-16T05:34:04.587Z,-4.80
2023-03-16T05:36:35.963Z,-4.70
2023-03-16T05:39:04.291Z,-4.70
2023-03-16T05:41:32.634Z,-4.70
2023-03-16T05:44:00.893Z,-4.70
2023-03-16T05:46:29.223Z,-4.70
2023-03-16T05:48:57.509Z,-4.60
2023-03-16T05:51:26.809Z,-4.50
2023-03-16T05:53:57.508Z,-4.60
2023-03-16T05:56:25.990Z,-4.50
2023-03-16T05:58:55.232Z,-4.50
2023-03-16T06:01:23.923Z,-4.40
2023-03-16T06:03:53.068Z,-4.40
2023-03-16T06:06:22.633Z,-4.30
2023-03-16T06:08:50.862Z,-4.10
2023-03-16T06:11:20.566Z,-4.10
2023-03-16T06:13:48.837Z,-4.00
2023-03-16T06:16:17.184Z,-4.00
2023-03-16T06:18:45.680Z,-3.90
2023-03-16T06:21:14.045Z,-3.90
2023-03-16T06:23:42.295Z,-3.70
2023-03-16T06:26:10.580Z,-3.70
2023-03-16T06:28:40.217Z,-3.50
2023-03-16T06:31:08.845Z,-3.50
2023-03-16T06:33:37.863Z,-3.30
2023-03-16T06:36:06.433Z,-3.20
2023-03-16T06:38:34.760Z,-3.00
2023-03-16T06:41:02.997Z,-2.90
2023-03-16T06:43:31.290Z,-2.60
2023-03-16T06:46:04.450Z,-1.60
2023-03-16T06:48:32.898Z,0.10
2023-03-16T06:51:02.225Z,1.60
2023-03-16T06:53:31.033Z,2.60
2023-03-16T06:55:59.967Z,3.50
2023-03-16T06:58:28.282Z,4.40
2023-03-16T07:00:57.136Z,4.90
2023-03-16T07:03:26.982Z,5.60
2023-03-16T07:05:55.669Z,6.20
2023-03-16T07:08:24.331Z,6.50
2023-03-16T07:10:52.629Z,6.80
2023-03-16T07:13:21.012Z,7.10
2023-03-16T07:15:52.247Z,7.70
2023-03-16T07:18:20.705Z,7.80
2023-03-16T07:20:50.321Z,8.10
2023-03-16T07:23:18.756Z,8.60
2023-03-16T07:25:47.336Z,9.00
2023-03-16T07:28:15.790Z,9.20
2023-03-16T07:30:56.680Z,9.00
2023-03-16T07:33:32.256Z,9.00
2023-03-16T07:36:04.462Z,9.50
2023-03-16T07:38:33.606Z,9.50
2023-03-16T07:41:02.207Z,9.40
2023-03-16T07:43:30.502Z,9.40
2023-03-16T07:45:58.830Z,9.60
2023-03-16T07:48:27.239Z,9.90
2023-03-16T07:50:55.527Z,10.00
2023-03-16T07:53:25.252Z,10.50
2023-03-16T07:55:53.430Z,11.00
2023-03-16T07:58:21.656Z,11.20
2023-03-16T08:00:49.977Z,11.00
2023-03-16T08:03:18.630Z,11.10
2023-03-16T08:05:48.893Z,11.40
2023-03-16T08:08:17.307Z,11.50
2023-03-16T08:10:49.168Z,11.60
2023-03-16T08:13:17.920Z,11.40
2023-03-16T08:15:48.350Z,11.30
2023-03-16T08:18:17.380Z,11.10
2023-03-16T08:20:45.887Z,10.60
2023-03-16T08:23:15.557Z,10.10
2023-03-16T08:25:44.327Z,9.80
2023-03-16T08:28:13.946Z,9.90
2023-03-16T08:30:46.978Z,9.80
2023-03-16T08:33:17.910Z,9.70
2023-03-16T08:35:46.515Z,9.80
2023-03-16T08:38:15.970Z,9.70
2023-03-16T08:40:47.725Z,9.40
2023-03-16T08:43:19.157Z,9.50
2023-03-16T08:45:48.438Z,9.60
2023-03-16T08:48:16.701Z,9.90
2023-03-16T08:50:45.335Z,9.30
2023-03-16T08:53:15.352Z,9.10
2023-03-16T08:55:44.062Z,8.50
2023-03-16T08:58:12.932Z,8.20
2023-03-16T09:00:44.340Z,8.50
2023-03-16T09:03:15.520Z,8.50
2023-03-16T09:05:44.417Z,8.60
2023-03-16T09:08:12.705Z,8.90
2023-03-16T09:10:41.889Z,9.90
2023-03-16T09:13:10.182Z,10.90
2023-03-16T09:15:38.955Z,11.50
2023-03-16T09:18:08.669Z,11.80
2023-03-16T09:20:37.916Z,12.30
2023-03-16T09:23:06.395Z,12.70
2023-03-16T09:25:34.669Z,12.80
2023-03-16T09:28:02.896Z,12.90
2023-03-16T09:30:31.627Z,12.90
2023-03-16T09:33:03.002Z,13.00
2023-03-16T09:35:35.126Z,13.30
2023-03-16T09:38:06.886Z,13.10
2023-03-16T09:40:37.645Z,13.30
2023-03-16T09:43:22.962Z,13.70
2023-03-16T09:46:00.656Z,14.10
2023-03-16T09:48:34.026Z,14.30
2023-03-16T09:51:07.798Z,14.50
2023-03-16T09:53:39.780Z,14.50
2023-03-16T09:56:13.609Z,14.40
2023-03-16T09:58:41.976Z,14.40
2023-03-16T10:01:16.665Z,14.60
2023-03-16T10:04:00.732Z,14.70
2023-03-16T10:06:31.246Z,13.70
2023-03-16T10:09:08.304Z,13.80
2023-03-16T10:11:41.196Z,14.20
2023-03-16T10:14:18.909Z,14.30
2023-03-16T10:16:51.389Z,14.40
2023-03-16T10:19:27.197Z,14.50
2023-03-16T10:21:59.077Z,14.70
2023-03-16T10:24:42.067Z,14.90
2023-03-16T10:27:18.164Z,15.10
2023-03-16T10:29:46.489Z,14.70
2023-03-16T10:32:18.990Z,15.10
2023-03-16T10:34:53.817Z,15.70
2023-03-16T10:37:28.335Z,15.80
2023-03-16T10:39:57.265Z,14.00
2023-03-16T10:42:27.164Z,13.50
2023-03-16T10:45:01.683Z,13.80
2023-03-16T10:47:32.498Z,13.80
2023-03-16T10:50:11.600Z,14.80
2023-03-16T10:52:44.249Z,15.00
2023-03-16T10:55:18.766Z,14.40
2023-03-16T10:57:51.397Z,13.80
2023-03-16T11:00:23.324Z,14.30
2023-03-16T11:02:54.275Z,14.50
2023-03-16T11:05:31.243Z,15.00
2023-03-16T11:08:03.843Z,15.10
2023-03-16T11:10:53.026Z,15.00
2023-03-16T11:13:24.706Z,14.90
2023-03-16T11:15:58.477Z,14.30
2023-03-16T11:18:31.190Z,14.40
2023-03-16T11:23:58.195Z,14.10
2023-03-16T11:26:34.994Z,14.60
2023-03-16T11:29:11.144Z,14.60
2023-03-16T11:31:48.650Z,14.70
2023-03-16T11:34:19.354Z,14.50
2023-03-16T11:36:56.008Z,14.50
2023-03-16T11:39:35.102Z,14.60
2023-03-16T11:42:22.549Z,13.90
2023-03-16T11:44:57.464Z,13.40
2023-03-16T11:47:53.164Z,12.00
2023-03-16T11:50:25.930Z,12.70
2023-03-16T11:53:01.281Z,12.40
2023-03-16T11:55:40.923Z,12.50
2023-03-16T11:58:25.808Z,13.00
2023-03-16T12:01:03.125Z,13.20
2023-03-16T12:04:02.339Z,13.40
2023-03-16T12:06:50.745Z,12.90
2023-03-16T12:09:42.868Z,13.20
2023-03-16T12:12:28.488Z,12.70
2023-03-16T12:15:24.331Z,12.60
2023-03-16T12:17:57.583Z,12.80
2023-03-16T12:20:31.750Z,13.20
2023-03-16T12:23:04.661Z,13.30
2023-03-16T12:25:36.622Z,13.90
2023-03-16T12:28:14.069Z,13.80
2023-03-16T12:30:51.718Z,14.00
2023-03-16T12:33:27.142Z,12.30
2023-03-16T12:36:00.882Z,11.60
2023-03-16T12:38:41.292Z,11.10
2023-03-16T12:41:24.740Z,10.80
2023-03-16T12:44:06.465Z,10.40
2023-03-16T12:46:47.931Z,9.80
2023-03-16T12:49:16.816Z,9.90
2023-03-16T12:51:45.538Z,9.60
2023-03-16T12:54:22.001Z,9.40
2023-03-16T12:56:51.737Z,9.10
2023-03-16T12:59:24.320Z,9.30
2023-03-16T13:01:54.094Z,9.10
2023-03-16T13:04:33.885Z,8.90
2023-03-16T13:07:06.170Z,8.90
2023-03-16T13:09:43.969Z,8.80
2023-03-16T13:12:24.888Z,9.20
2023-03-16T13:14:57.009Z,8.70
2023-03-16T13:17:31.242Z,8.50
2023-03-16T13:20:04.274Z,8.80
2023-03-16T13:22:43.192Z,8.90
2023-03-16T13:25:18.228Z,9.30
2023-03-16T13:27:49.324Z,9.70
2023-03-16T13:30:22.408Z,9.90
2023-03-16T13:32:54.812Z,9.70
2023-03-16T13:35:27.902Z,9.40
2023-03-16T13:37:56.268Z,9.50
2023-03-16T13:40:28.074Z,8.80
2023-03-16T13:42:59.120Z,8.60
2023-03-16T13:45:34.850Z,9.20
2023-03-16T13:48:03.367Z,9.50
2023-03-16T13:50:33.878Z,9.20
2023-03-16T13:53:04.677Z,9.10
2023-03-16T13:55:34.755Z,9.10
2023-03-16T13:58:03.943Z,9.00
2023-03-16T14:00:36.892Z,9.20
2023-03-16T14:03:16.254Z,9.10
2023-03-16T14:05:48.391Z,8.80
2023-03-16T14:08:18.117Z,8.60
2023-03-16T14:10:47.529Z,8.40
2023-03-16T14:13:36.730Z,8.30
2023-03-16T14:16:14.456Z,8.10
2023-03-16T14:18:44.716Z,8.20
2023-03-16T14:21:17.871Z,8.30
2023-03-16T14:23:50.790Z,8.90
2023-03-16T14:26:24.497Z,9.00
2023-03-16T14:28:58.476Z,8.60
2023-03-16T14:31:39.766Z,8.90
2023-03-16T14:34:21.410Z,9.10
2023-03-16T14:36:50.061Z,8.80
2023-03-16T14:39:21.856Z,8.80
2023-03-16T14:41:50.905Z,9.10
2023-03-16T14:44:25.849Z,9.40
2023-03-16T14:46:57.837Z,9.10
2023-03-16T14:49:29.156Z,9.00
2023-03-16T14:52:02.134Z,9.00
2023-03-16T14:54:30.989Z,8.60
2023-03-16T14:57:02.760Z,8.20
2023-03-16T14:59:31.101Z,8.50
2023-03-16T15:02:02.313Z,9.00
2023-03-16T15:04:33.438Z,9.20
2023-03-16T15:07:04.313Z,9.30
2023-03-16T15:09:37.143Z,9.30
2023-03-16T15:12:06.264Z,9.50
2023-03-16T15:14:51.154Z,9.40
2023-03-16T15:17:20.855Z,9.60
2023-03-16T15:19:50.412Z,10.30
2023-03-16T15:22:29.146Z,9.70
2023-03-16T15:24:58.946Z,10.00
2023-03-16T15:27:34.186Z,10.60
2023-03-16T15:30:03.019Z,10.70
2023-03-16T15:32:35.435Z,10.80
2023-03-16T15:35:04.205Z,9.70
2023-03-16T15:37:32.842Z,9.10
2023-03-16T15:40:01.228Z,8.10
2023-03-16T15:42:29.532Z,7.60
2023-03-16T15:44:57.789Z,7.30
2023-03-16T15:47:26.697Z,7.00
2023-03-16T15:49:56.609Z,7.10
2023-03-16T15:52:36.742Z,6.90
2023-03-16T15:55:08.387Z,6.90
2023-03-16T15:57:37.189Z,6.70
2023-03-16T16:00:07.293Z,6.60
2023-03-16T16:02:38.065Z,6.50
2023-03-16T16:05:10.619Z,6.50
2023-03-16T16:07:41.781Z,6.50
2023-03-16T16:10:15.262Z,6.50
2023-03-16T16:12:51.246Z,6.40
2023-03-16T16:15:25.910Z,6.40
2023-03-16T16:18:19.086Z,6.30
2023-03-16T16:20:48.331Z,6.10
2023-03-16T16:23:19.829Z,6.10
2023-03-16T16:25:49.620Z,5.90
2023-03-16T16:28:20.837Z,5.90
2023-03-16T16:30:49.396Z,5.70
2023-03-16T16:33:28.661Z,5.60
2023-03-16T16:36:02.779Z,5.50
2023-03-16T16:38:32.564Z,5.30
2023-03-16T16:41:03.069Z,5.30
2023-03-16T16:43:36.607Z,5.20
2023-03-16T16:46:09.106Z,5.00
2023-03-16T16:48:39.910Z,4.90
2023-03-16T16:51:18.598Z,4.90
2023-03-16T16:53:47.349Z,4.70
2023-03-16T16:56:17.871Z,4.60
2023-03-16T16:58:49.057Z,4.50
2023-03-16T17:01:24.406Z,4.40
2023-03-16T17:03:52.766Z,4.30
2023-03-16T17:06:22.396Z,4.20
2023-03-16T17:08:51.392Z,4.00
2023-03-16T17:11:26.254Z,4.00
2023-03-16T17:13:56.974Z,3.90
2023-03-16T17:16:26.674Z,3.70
2023-03-16T17:18:55.584Z,3.50
2023-03-16T17:21:27.234Z,3.40
2023-03-16T17:23:56.973Z,3.30
2023-03-16T17:26:28.939Z,3.10
2023-03-16T17:28:59.495Z,3.10
2023-03-16T17:31:31.087Z,3.00
2023-03-16T17:33:59.665Z,3.00
2023-03-16T17:36:27.251Z,3.00
2023-03-16T17:38:58.148Z,2.90
2023-03-16T17:41:28.125Z,3.00
2023-03-16T17:43:58.474Z,2.90
2023-03-16T17:46:30.251Z,2.80
2023-03-16T17:49:00.211Z,2.70
2023-03-16T17:51:31.550Z,2.70
2023-03-16T17:54:01.530Z,2.70
2023-03-16T17:56:30.532Z,2.70
2023-03-16T17:58:59.238Z,2.60
2023-03-16T18:01:34.549Z,2.60
2023-03-16T18:04:13.537Z,2.60
2023-03-16T18:06:47.151Z,2.50
2023-03-16T18:09:17.843Z,2.50
2023-03-16T18:11:48.163Z,2.40
2023-03-16T18:14:26.457Z,2.30
2023-03-16T18:17:04.749Z,2.30
2023-03-16T18:19:37.893Z,2.20
2023-03-16T18:22:13.615Z,2.30
2023-03-16T18:24:46.483Z,2.30
2023-03-16T18:27:18.351Z,2.30
2023-03-16T18:29:59.316Z,2.40
2023-03-16T18:32:30.652Z,2.40
2023-03-16T18:35:00.095Z,2.40
2023-03-16T18:37:29.547Z,2.50
2023-03-16T18:39:59.941Z,2.50
2023-03-16T18:42:28.795Z,2.40
2023-03-16T18:44:57.206Z,2.30
2023-03-16T18:47:31.624Z,2.30
2023-03-16T18:50:07.735Z,2.20
2023-03-16T18:52:39.272Z,2.20
2023-03-16T18:55:17.176Z,2.00
2023-03-16T18:57:50.717Z,1.80
2023-03-16T19:00:21.948Z,1.70
2023-03-16T19:02:56.400Z,1.70
2023-03-16T19:05:37.578Z,1.70
2023-03-16T19:08:13.288Z,1.90
2023-03-16T19:10:51.345Z,2.00
2023-03-16T19:13:24.606Z,2.00
2023-03-16T19:16:04.332Z,2.10
2023-03-16T19:18:42.098Z,2.00
2023-03-16T19:21:25.436Z,2.00
2023-03-16T19:23:58.737Z,2.10
2023-03-16T19:26:29.233Z,2.20
2023-03-16T19:29:00.519Z,2.40
2023-03-16T19:31:31.416Z,2.40
2023-03-16T19:34:00.134Z,2.40
2023-03-16T19:36:34.067Z,2.40
2023-03-16T19:39:04.085Z,2.50
2023-03-16T19:41:36.491Z,2.50
2023-03-16T19:44:37.222Z,2.50
2023-03-16T19:47:41.547Z,2.60
2023-03-16T19:50:16.109Z,2.80
2023-03-16T19:52:45.174Z,2.80
2023-03-16T19:55:22.089Z,2.80
2023-03-16T19:57:59.152Z,2.80
2023-03-16T20:00:31.083Z,2.80
2023-03-16T20:02:59.964Z,2.70
2023-03-16T20:05:41.942Z,2.80
2023-03-16T20:08:21.502Z,2.70
2023-03-16T20:10:50.284Z,2.70
2023-03-16T20:13:23.301Z,2.60
2023-03-16T20:15:51.638Z,2.60
2023-03-16T20:18:22.880Z,2.60
2023-03-16T20:20:51.807Z,2.50
2023-03-16T20:23:31.133Z,2.40
2023-03-16T20:26:03.088Z,2.40
2023-03-16T20:28:37.485Z,2.30
2023-03-16T20:31:40.136Z,2.30
2023-03-16T20:34:35.032Z,2.30
2023-03-16T20:37:32.178Z,2.40
2023-03-16T20:40:18.562Z,2.50
2023-03-16T20:42:58.684Z,2.40
2023-03-16T20:45:30.637Z,2.30
2023-03-16T20:47:59.222Z,2.30
2023-03-16T20:50:38.803Z,2.20
2023-03-16T20:53:10.302Z,2.30
2023-03-16T20:55:39.142Z,2.20
2023-03-16T20:58:19.552Z,2.20
2023-03-16T21:00:55.864Z,2.10
2023-03-16T21:03:26.297Z,2.10
2023-03-16T21:05:59.618Z,2.00
2023-03-16T21:08:29.437Z,2.00
2023-03-16T21:10:59.896Z,2.10
2023-03-16T21:13:43.261Z,2.00
2023-03-16T21:16:13.833Z,2.00
2023-03-16T21:18:42.382Z,2.00
2023-03-16T21:21:15.781Z,1.90
2023-03-16T21:23:51.672Z,1.90
2023-03-16T21:26:21.833Z,1.90
2023-03-16T21:28:55.705Z,2.00
2023-03-16T21:31:26.590Z,2.00
2023-03-16T21:33:58.669Z,1.90
2023-03-16T21:36:27.528Z,1.90
2023-03-16T21:38:57.197Z,1.90
2023-03-16T21:41:25.832Z,1.90
2023-03-16T21:43:56.081Z,1.80
2023-03-16T21:46:26.475Z,1.80
2023-03-16T21:48:59.195Z,1.80
2023-03-16T21:51:32.300Z,1.80
2023-03-16T21:54:02.455Z,1.70
2023-03-16T21:56:30.961Z,1.90
2023-03-16T21:58:59.409Z,1.90
2023-03-16T22:01:31.693Z,1.90
2023-03-16T22:04:04.530Z,1.80
2023-03-16T22:06:33.448Z,1.70
2023-03-16T22:09:02.161Z,1.60
2023-03-16T22:11:31.669Z,1.60
2023-03-16T22:14:01.459Z,1.60
2023-03-16T22:16:35.103Z,1.50
2023-03-16T22:19:04.964Z,1.40
2023-03-16T22:21:35.732Z,1.30
2023-03-16T22:24:06.703Z,1.40
2023-03-16T22:26:36.076Z,1.40
2023-03-16T22:29:26.862Z,1.50
2023-03-16T22:32:08.372Z,1.60
2023-03-16T22:34:43.191Z,1.70
2023-03-16T22:37:18.693Z,1.70
2023-03-16T22:39:47.516Z,1.60
2023-03-16T22:42:30.613Z,1.60
2023-03-16T22:45:19.293Z,1.70
2023-03-16T22:47:49.138Z,1.60
2023-03-16T22:50:18.734Z,1.60
2023-03-16T22:52:51.163Z,1.50
2023-03-16T22:55:22.871Z,1.50
2023-03-16T22:57:52.645Z,1.50
2023-03-16T23:00:22.208Z,1.50
2023-03-16T23:02:52.384Z,1.60
2023-03-16T23:05:32.868Z,1.60
2023-03-16T23:08:03.686Z,1.60
2023-03-16T23:10:32.940Z,1.70
2023-03-16T23:13:02.151Z,1.60
2023-03-16T23:15:35.315Z,1.80
2023-03-16T23:18:26.101Z,1.90
2023-03-16T23:20:57.516Z,1.90
2023-03-16T23:23:31.522Z,2.00
2023-03-16T23:26:22.450Z,2.10
2023-03-16T23:28:52.301Z,2.20
2023-03-16T23:31:22.162Z,2.20
2023-03-16T23:33:53.907Z,2.20
2023-03-16T23:36:24.462Z,2.20
2023-03-16T23:38:53.327Z,2.20
2023-03-16T23:41:24.903Z,2.10
2023-03-16T23:44:02.040Z,2.10
2023-03-16T23:46:43.344Z,2.20
2023-03-16T23:49:26.647Z,2.20
2023-03-16T23:51:59.170Z,2.20
2023-03-16T23:54:41.886Z,2.30
2023-03-16T23:57:43.918Z,2.30
